Time;durP1;ratioP1;P1;durP2;ratioP2;P2;SDS_P1;SDS_P2;PMS_P1;PMS_P2;Temp;Humidity;BMP_temperature;BMP_pressure;BME280_temperature;BME280_humidity;BME280_pressure;Samples;Min_cycle;Max_cycle;Signal;HPM_P1;HPM_P2
2023/05/25 00:00:29;;;;;;;8.57;7.87;;;10.50;99.90;;;;;;5020111;28;20677;-80
2023/05/25 00:02:56;;;;;;;9.03;7.63;;;10.50;99.90;;;;;;5019424;28;20631;-79
2023/05/25 00:05:26;;;;;;;9.03;8.13;;;10.50;99.90;;;;;;5018868;28;20219;-79
2023/05/25 00:07:54;;;;;;;10.10;7.77;;;10.50;99.90;;;;;;5020567;28;20208;-80
2023/05/25 00:10:21;;;;;;;11.97;7.00;;;10.50;99.90;;;;;;5018603;28;20288;-78
2023/05/25 00:12:49;;;;;;;9.40;7.00;;;10.50;99.90;;;;;;5015307;28;20237;-78
2023/05/25 00:15:16;;;;;;;8.20;7.47;;;10.50;99.90;;;;;;5018321;28;20242;-78
2023/05/25 00:17:43;;;;;;;7.93;7.23;;;10.50;99.90;;;;;;5017400;28;20211;-79
2023/05/25 00:20:12;;;;;;;8.23;7.47;;;10.50;99.90;;;;;;5013714;28;20204;-81
2023/05/25 00:22:43;;;;;;;10.13;7.37;;;10.50;99.90;;;;;;5021788;28;20216;-79
2023/05/25 00:25:10;;;;;;;12.50;8.30;;;10.60;99.90;;;;;;5022984;28;20310;-80
2023/05/25 00:27:37;;;;;;;8.27;7.47;;;10.50;99.90;;;;;;5019858;28;20208;-79
2023/05/25 00:30:07;;;;;;;8.60;7.57;;;10.60;99.90;;;;;;5017307;28;20241;-80
2023/05/25 00:32:34;;;;;;;9.23;7.97;;;10.60;99.90;;;;;;5022421;28;20659;-78
2023/05/25 00:35:01;;;;;;;11.63;7.67;;;10.60;99.90;;;;;;5019156;28;20691;-79
2023/05/25 00:37:27;;;;;;;8.80;7.63;;;10.60;99.90;;;;;;5017130;28;20205;-79
2023/05/25 00:39:55;;;;;;;7.67;6.97;;;10.60;99.90;;;;;;5014051;28;20675;-78
2023/05/25 00:42:23;;;;;;;10.57;8.10;;;10.60;99.90;;;;;;5016159;28;20621;-78
2023/05/25 00:44:50;;;;;;;8.63;7.80;;;10.60;99.90;;;;;;5017989;28;20225;-80
2023/05/25 00:47:18;;;;;;;9.77;7.83;;;10.50;99.90;;;;;;5020659;28;20205;-79
2023/05/25 00:49:46;;;;;;;8.83;7.93;;;10.50;99.90;;;;;;5016902;28;20190;-79
2023/05/25 00:52:13;;;;;;;9.10;7.37;;;10.50;99.90;;;;;;5015606;28;20574;-79
2023/05/25 00:54:40;;;;;;;10.97;7.60;;;10.50;99.90;;;;;;5014134;28;20221;-79
2023/05/25 00:57:08;;;;;;;9.23;8.10;;;10.40;99.90;;;;;;5018920;28;20198;-79
2023/05/25 00:59:40;;;;;;;8.97;7.50;;;10.40;99.90;;;;;;5013253;28;20205;-79
2023/05/25 01:02:09;;;;;;;8.17;7.40;;;10.40;99.90;;;;;;5013918;28;20213;-79
2023/05/25 01:04:44;;;;;;;7.20;6.70;;;10.30;99.90;;;;;;5018298;28;20224;-79
2023/05/25 01:07:15;;;;;;;10.17;8.07;;;10.30;99.90;;;;;;5014355;28;20260;-79
2023/05/25 01:09:45;;;;;;;8.83;7.30;;;10.20;99.90;;;;;;5019832;28;20203;-79
2023/05/25 01:12:15;;;;;;;8.47;7.77;;;10.20;99.90;;;;;;5016985;28;20751;-79
2023/05/25 01:14:43;;;;;;;8.47;7.77;;;10.10;99.90;;;;;;5021224;28;20248;-80
2023/05/25 01:17:10;;;;;;;14.80;8.87;;;10.00;99.90;;;;;;5015516;28;20200;-79
2023/05/25 01:19:40;;;;;;;6.47;4.60;;;9.90;99.90;;;;;;5025532;28;20261;-79
2023/05/25 01:22:15;;;;;;;8.40;5.80;;;9.90;99.90;;;;;;5026477;28;20238;-79
2023/05/25 01:24:46;;;;;;;10.67;8.17;;;9.80;99.90;;;;;;5034547;28;20668;-79
2023/05/25 01:27:16;;;;;;;8.90;7.97;;;9.80;99.90;;;;;;5032158;28;20223;-79
2023/05/25 01:29:45;;;;;;;8.10;7.37;;;9.80;99.90;;;;;;5023177;28;20209;-79
2023/05/25 01:32:13;;;;;;;9.13;8.23;;;9.70;99.90;;;;;;5018425;28;20237;-80
2023/05/25 01:34:43;;;;;;;8.97;8.07;;;9.60;99.90;;;;;;5014485;28;20318;-79
2023/05/25 01:37:12;;;;;;;8.70;7.93;;;9.60;99.90;;;;;;5012818;28;20200;-79
2023/05/25 01:39:39;;;;;;;8.80;8.00;;;9.60;99.90;;;;;;5026029;28;20220;-79
2023/05/25 01:42:06;;;;;;;8.87;8.00;;;9.50;99.90;;;;;;5014664;28;20666;-80
2023/05/25 01:44:34;;;;;;;8.53;5.83;;;9.50;99.90;;;;;;5015894;28;20212;-79
2023/05/25 01:47:07;;;;;;;8.10;6.60;;;9.50;99.90;;;;;;5017118;28;20231;-80
2023/05/25 01:49:42;;;;;;;7.83;6.40;;;9.40;99.90;;;;;;5014363;28;20205;-79
2023/05/25 01:52:18;;;;;;;7.50;6.03;;;9.40;99.90;;;;;;5015747;28;20242;-80
2023/05/25 01:54:49;;;;;;;7.13;6.50;;;9.40;99.90;;;;;;5022781;28;20221;-79
2023/05/25 01:57:18;;;;;;;8.43;6.33;;;9.30;99.90;;;;;;5024996;28;20738;-80
2023/05/25 01:59:47;;;;;;;6.60;6.00;;;9.30;99.90;;;;;;5022370;28;20197;-80
2023/05/25 02:02:16;;;;;;;7.13;5.40;;;9.30;99.90;;;;;;5019014;28;20738;-80
2023/05/25 02:04:43;;;;;;;6.97;5.23;;;9.30;99.90;;;;;;5019322;28;20235;-77
2023/05/25 02:07:12;;;;;;;9.30;5.10;;;9.30;99.90;;;;;;5013632;28;20196;-78
2023/05/25 02:09:39;;;;;;;5.30;4.80;;;9.30;99.90;;;;;;5024415;28;20192;-78
2023/05/25 02:12:06;;;;;;;7.20;5.63;;;9.20;99.90;;;;;;5015782;28;20221;-80
2023/05/25 02:14:33;;;;;;;7.43;6.60;;;9.20;99.90;;;;;;5022081;28;20213;-78
2023/05/25 02:17:01;;;;;;;7.00;6.40;;;9.10;99.90;;;;;;5015641;28;20572;-80
2023/05/25 02:19:28;;;;;;;8.10;7.17;;;9.10;99.90;;;;;;5014182;28;20208;-80
2023/05/25 02:21:56;;;;;;;7.43;6.73;;;9.20;99.90;;;;;;5013496;28;20619;-78
2023/05/25 02:24:25;;;;;;;7.37;6.53;;;9.20;99.90;;;;;;5014024;28;20221;-79
2023/05/25 02:26:53;;;;;;;7.40;6.57;;;9.10;99.90;;;;;;5022598;28;20193;-78
2023/05/25 02:29:20;;;;;;;11.53;7.13;;;9.10;99.90;;;;;;5015116;28;20197;-79
2023/05/25 02:31:47;;;;;;;7.00;6.40;;;9.20;99.90;;;;;;5015988;28;20621;-78
2023/05/25 02:34:14;;;;;;;10.07;7.27;;;9.10;99.90;;;;;;5010990;28;20200;-78
2023/05/25 02:36:42;;;;;;;7.97;7.27;;;9.10;99.90;;;;;;5009602;28;20207;-79
2023/05/25 02:39:09;;;;;;;9.03;7.10;;;9.00;99.90;;;;;;5012942;28;20570;-77
2023/05/25 02:41:39;;;;;;;9.80;6.97;;;9.00;99.90;;;;;;5011612;28;20207;-82
2023/05/25 02:44:07;;;;;;;9.57;7.50;;;8.90;99.90;;;;;;5008845;28;20714;-79
2023/05/25 02:46:34;;;;;;;8.00;7.20;;;8.90;99.90;;;;;;5011981;28;20189;-79
2023/05/25 02:49:01;;;;;;;8.13;7.33;;;8.90;99.90;;;;;;5017894;28;20283;-80
2023/05/25 02:54:26;;;;;;;10.90;9.80;;;8.80;99.90;;;;;;5012543;28;20283;-83
2023/05/25 02:56:54;;;;;;;10.80;8.07;;;8.70;99.90;;;;;;5010226;28;20252;-82
2023/05/25 02:59:23;;;;;;;7.57;6.47;;;8.70;99.90;;;;;;5015516;28;20200;-82
2023/05/25 03:01:50;;;;;;;9.13;6.50;;;8.60;99.90;;;;;;5014245;28;20193;-81
2023/05/25 03:04:17;;;;;;;8.17;6.83;;;8.70;99.90;;;;;;5016953;28;20204;-80
2023/05/25 03:06:45;;;;;;;6.83;5.90;;;8.60;99.90;;;;;;5002318;28;20193;-81
2023/05/25 03:09:16;;;;;;;7.37;5.60;;;8.60;99.90;;;;;;5016813;28;20192;-81
2023/05/25 03:11:44;;;;;;;8.53;6.23;;;8.70;99.90;;;;;;5012537;28;20308;-82
2023/05/25 03:14:16;;;;;;;6.73;6.03;;;8.70;99.90;;;;;;5018396;28;20202;-82
2023/05/25 03:16:50;;;;;;;7.67;6.83;;;8.70;99.90;;;;;;5021032;28;20280;-82
2023/05/25 03:19:19;;;;;;;9.47;6.53;;;8.80;99.90;;;;;;5021689;28;20221;-81
2023/05/25 03:21:46;;;;;;;10.50;6.80;;;8.80;99.90;;;;;;5021003;28;20223;-82
2023/05/25 03:24:13;;;;;;;8.03;6.80;;;8.80;99.90;;;;;;5019762;28;20193;-83
2023/05/25 03:26:40;;;;;;;8.93;6.40;;;8.80;99.90;;;;;;5021850;28;20201;-82
2023/05/25 03:29:06;;;;;;;8.57;7.27;;;8.80;99.90;;;;;;5021787;28;20208;-81
2023/05/25 03:31:35;;;;;;;9.63;6.97;;;8.80;99.90;;;;;;5020899;28;20205;-84
2023/05/25 03:34:02;;;;;;;10.30;7.43;;;8.70;99.90;;;;;;5020435;28;20231;-85
2023/05/25 03:36:32;;;;;;;8.90;6.27;;;8.70;99.90;;;;;;5021387;28;20224;-83
2023/05/25 03:38:59;;;;;;;9.13;6.20;;;8.70;99.90;;;;;;5018543;28;20201;-84
2023/05/25 03:41:27;;;;;;;7.27;6.53;;;8.70;99.90;;;;;;5038188;28;20196;-82
2023/05/25 03:43:53;;;;;;;7.73;5.77;;;8.70;99.90;;;;;;5018589;28;20556;-84
2023/05/25 03:46:20;;;;;;;7.70;7.00;;;8.70;99.90;;;;;;5023810;28;20228;-82
2023/05/25 03:48:49;;;;;;;8.70;6.33;;;8.70;99.90;;;;;;5019613;28;20193;-84
2023/05/25 03:51:16;;;;;;;11.57;6.60;;;8.70;99.90;;;;;;5014689;28;20327;-81
2023/05/25 03:53:43;;;;;;;12.30;8.20;;;8.70;99.90;;;;;;5020496;28;20213;-83
2023/05/25 03:56:09;;;;;;;10.70;7.60;;;8.70;99.90;;;;;;5028341;28;20232;-81
2023/05/25 03:58:37;;;;;;;9.40;6.77;;;8.80;99.90;;;;;;5028671;28;20197;-81
2023/05/25 04:01:04;;;;;;;11.10;8.53;;;8.80;99.90;;;;;;5022535;28;20303;-80
2023/05/25 04:03:32;;;;;;;9.27;7.47;;;8.90;99.90;;;;;;5021711;28;20201;-80
2023/05/25 04:06:01;;;;;;;12.27;7.47;;;9.00;99.90;;;;;;5019367;28;20224;-81
2023/05/25 04:08:29;;;;;;;8.33;7.30;;;9.00;99.90;;;;;;5024660;28;20207;-81
2023/05/25 04:10:56;;;;;;;10.87;8.00;;;9.10;99.90;;;;;;5036457;28;20267;-80
2023/05/25 04:13:23;;;;;;;7.80;7.10;;;9.20;99.90;;;;;;5024956;28;20223;-81
2023/05/25 04:15:50;;;;;;;14.40;7.70;;;9.30;99.90;;;;;;5019424;28;20248;-79
2023/05/25 04:18:23;;;;;;;12.00;7.77;;;9.30;99.90;;;;;;5025907;28;20203;-81
2023/05/25 04:20:50;;;;;;;15.83;7.53;;;9.30;99.90;;;;;;5023864;28;20197;-79
2023/05/25 04:23:22;;;;;;;8.87;7.97;;;9.30;99.90;;;;;;5020032;28;20192;-80
2023/05/25 04:25:50;;;;;;;8.47;7.57;;;9.30;99.90;;;;;;5033711;28;20232;-79
2023/05/25 04:28:17;;;;;;;9.23;7.87;;;9.40;99.90;;;;;;5023189;28;20201;-81
2023/05/25 04:31:08;;;;;;;7.20;6.50;;;9.40;99.90;;;;;;5020060;28;20209;-80
2023/05/25 04:33:58;;;;;;;11.03;7.47;;;9.50;99.90;;;;;;5019551;28;20278;-80
2023/05/25 04:36:31;;;;;;;10.07;8.00;;;9.50;99.90;;;;;;5017684;28;20220;-80
2023/05/25 04:39:03;;;;;;;9.63;8.63;;;9.60;99.90;;;;;;5022122;28;20205;-81
2023/05/25 04:41:30;;;;;;;12.43;7.67;;;9.60;99.90;;;;;;5020788;28;20623;-81
2023/05/25 04:44:02;;;;;;;10.63;7.80;;;9.70;99.90;;;;;;5018953;28;20197;-80
2023/05/25 04:46:30;;;;;;;12.07;8.03;;;9.90;99.90;;;;;;5021834;28;20221;-81
2023/05/25 04:48:57;;;;;;;13.37;7.87;;;10.10;99.90;;;;;;5019376;28;20301;-80
2023/05/25 04:51:25;;;;;;;13.50;10.93;;;10.20;99.90;;;;;;5025627;28;20220;-81
2023/05/25 04:53:52;;;;;;;14.67;9.43;;;10.30;99.90;;;;;;5023905;28;20213;-79
2023/05/25 04:56:24;;;;;;;9.53;8.43;;;10.50;99.90;;;;;;5033562;28;20288;-80
2023/05/25 04:58:51;;;;;;;10.40;9.57;;;10.70;99.90;;;;;;5022245;28;20189;-81
2023/05/25 05:01:19;;;;;;;10.20;9.00;;;10.90;99.90;;;;;;5023801;28;20202;-78
2023/05/25 05:03:46;;;;;;;8.93;7.37;;;10.90;99.90;;;;;;5024036;28;20199;-80
2023/05/25 05:06:15;;;;;;;10.10;8.80;;;11.00;99.90;;;;;;5018436;28;20212;-81
2023/05/25 05:08:42;;;;;;;13.83;8.03;;;11.00;99.90;;;;;;5020673;28;20619;-81
2023/05/25 05:11:09;;;;;;;12.90;9.80;;;11.10;99.90;;;;;;5018549;28;20214;-81
2023/05/25 05:13:37;;;;;;;10.57;9.37;;;11.20;99.90;;;;;;5025188;28;20305;-78
2023/05/25 05:16:05;;;;;;;10.00;8.93;;;11.30;99.90;;;;;;5021078;28;20231;-79
2023/05/25 05:18:33;;;;;;;10.37;8.80;;;11.40;99.90;;;;;;5023584;28;20213;-81
2023/05/25 05:20:59;;;;;;;9.97;8.97;;;11.60;99.90;;;;;;5031360;28;20254;-79
2023/05/25 05:23:26;;;;;;;11.77;9.37;;;11.70;99.90;;;;;;5028859;28;20207;-80
2023/05/25 05:25:54;;;;;;;11.87;9.50;;;11.80;99.90;;;;;;5034056;28;20216;-79
2023/05/25 05:28:26;;;;;;;9.70;8.70;;;12.00;99.90;;;;;;5037207;28;20203;-78
2023/05/25 05:30:54;;;;;;;11.83;6.93;;;12.20;99.90;;;;;;5021753;28;20296;-81
2023/05/25 05:33:22;;;;;;;12.43;6.57;;;12.30;99.90;;;;;;5020743;28;20314;-80
2023/05/25 05:35:49;;;;;;;11.97;8.27;;;12.20;99.90;;;;;;5016244;28;20641;-80
2023/05/25 05:38:21;;;;;;;12.87;7.23;;;12.20;99.90;;;;;;5016147;28;20255;-81
2023/05/25 05:40:48;;;;;;;9.90;6.73;;;12.10;99.90;;;;;;5021900;28;20201;-80
2023/05/25 05:43:19;;;;;;;14.47;7.50;;;12.10;99.90;;;;;;5030213;28;20669;-84
2023/05/25 05:45:46;;;;;;;8.60;6.50;;;12.00;99.90;;;;;;5016347;28;20231;-84
2023/05/25 05:48:14;;;;;;;10.43;7.10;;;11.90;99.90;;;;;;5018878;28;20272;-80
2023/05/25 05:50:41;;;;;;;10.10;7.07;;;12.00;99.90;;;;;;5021328;28;20562;-80
2023/05/25 05:53:09;;;;;;;13.80;6.43;;;12.10;99.90;;;;;;5016999;28;20751;-78
2023/05/25 05:55:36;;;;;;;11.53;6.87;;;12.00;99.90;;;;;;5026681;28;20284;-80
2023/05/25 05:58:03;;;;;;;11.50;6.63;;;12.10;99.90;;;;;;5022830;28;20203;-81
2023/05/25 06:00:30;;;;;;;13.53;7.53;;;12.10;99.90;;;;;;5014544;28;20254;-80
2023/05/25 06:02:57;;;;;;;15.47;8.03;;;12.10;99.90;;;;;;5023584;28;20215;-80
2023/05/25 06:05:28;;;;;;;9.47;7.50;;;12.00;99.90;;;;;;5016797;28;20220;-80
2023/05/25 06:07:55;;;;;;;14.60;8.37;;;11.90;99.90;;;;;;5016604;28;20197;-79
2023/05/25 06:10:23;;;;;;;11.20;7.80;;;11.90;99.90;;;;;;5018051;28;20192;-81
2023/05/25 06:12:50;;;;;;;9.50;8.40;;;12.00;99.90;;;;;;5018676;28;20213;-81
2023/05/25 06:15:17;;;;;;;10.17;9.07;;;12.20;99.90;;;;;;5021522;28;20670;-79
2023/05/25 06:17:45;;;;;;;9.80;5.30;;;12.70;99.90;;;;;;5015659;28;20212;-79
2023/05/25 06:20:13;;;;;;;15.73;9.47;;;13.20;99.90;;;;;;5021986;28;20212;-79
2023/05/25 06:22:42;;;;;;;9.67;5.20;;;13.60;99.90;;;;;;5017118;28;20201;-80
2023/05/25 06:25:12;;;;;;;11.17;5.90;;;13.80;99.90;;;;;;5019112;28;20220;-78
2023/05/25 06:27:42;;;;;;;12.20;6.63;;;14.00;99.90;;;;;;5017471;28;20200;-85
2023/05/25 06:30:10;;;;;;;8.90;5.47;;;14.10;99.90;;;;;;5030312;28;20665;-79
2023/05/25 06:32:37;;;;;;;11.07;5.50;;;14.10;99.90;;;;;;5024671;28;20201;-81
2023/05/25 06:35:04;;;;;;;11.30;5.30;;;14.20;99.90;;;;;;5016947;28;20230;-80
2023/05/25 06:37:34;;;;;;;9.07;5.77;;;14.30;99.90;;;;;;5018037;28;20708;-80
2023/05/25 06:40:05;;;;;;;8.93;5.80;;;14.30;99.90;;;;;;5026251;28;20203;-80
2023/05/25 06:42:33;;;;;;;8.40;5.53;;;14.30;99.90;;;;;;5013633;28;20211;-80
2023/05/25 06:45:02;;;;;;;9.80;5.77;;;14.10;99.90;;;;;;5017913;28;20290;-80
2023/05/25 06:47:29;;;;;;;11.57;6.50;;;14.00;99.90;;;;;;5014311;28;20217;-80
2023/05/25 06:49:57;;;;;;;9.67;5.80;;;13.90;99.90;;;;;;5021131;28;20197;-80
2023/05/25 06:52:26;;;;;;;12.57;5.83;;;13.60;99.90;;;;;;5014776;28;20203;-80
2023/05/25 06:54:53;;;;;;;9.17;5.83;;;13.60;99.90;;;;;;5015331;28;20234;-79
2023/05/25 06:57:22;;;;;;;11.47;7.10;;;13.60;99.90;;;;;;5013795;28;20207;-80
2023/05/25 06:59:49;;;;;;;10.70;6.37;;;13.50;99.90;;;;;;5015077;28;20201;-80
2023/05/25 07:02:16;;;;;;;9.63;5.80;;;13.50;99.90;;;;;;5019035;28;20203;-80
2023/05/25 07:04:43;;;;;;;11.07;6.20;;;13.50;99.90;;;;;;5015796;28;20688;-81
2023/05/25 07:07:11;;;;;;;10.50;6.67;;;13.50;99.90;;;;;;5020414;28;20198;-79
2023/05/25 07:09:38;;;;;;;9.40;7.23;;;13.50;99.90;;;;;;5016945;28;20224;-79
2023/05/25 07:12:06;;;;;;;12.57;7.37;;;13.60;99.90;;;;;;5020261;28;20263;-80
2023/05/25 07:14:34;;;;;;;12.13;7.83;;;13.60;99.90;;;;;;5016646;28;20272;-81
2023/05/25 07:17:01;;;;;;;12.30;7.33;;;13.70;99.90;;;;;;5013730;28;20234;-80
2023/05/25 07:19:28;;;;;;;16.10;6.77;;;13.80;99.90;;;;;;5019771;28;20221;-81
2023/05/25 07:21:55;;;;;;;13.77;7.80;;;14.00;99.90;;;;;;5014146;28;20197;-80
2023/05/25 07:24:21;;;;;;;7.50;6.10;;;14.20;99.90;;;;;;5010360;28;20225;-81
2023/05/25 07:26:48;;;;;;;10.57;6.67;;;14.50;99.90;;;;;;5014153;28;20197;-79
2023/05/25 07:29:15;;;;;;;11.57;7.50;;;14.80;99.90;;;;;;5017774;28;20212;-80
2023/05/25 07:31:43;;;;;;;11.23;7.10;;;15.00;99.90;;;;;;5014284;28;20201;-80
2023/05/25 07:34:10;;;;;;;14.23;6.10;;;15.20;99.90;;;;;;5015706;28;20277;-80
2023/05/25 07:36:37;;;;;;;12.13;6.90;;;15.70;99.90;;;;;;5013367;28;20208;-80
2023/05/25 07:39:05;;;;;;;16.47;7.10;;;16.10;99.90;;;;;;5026790;28;20255;-83
2023/05/25 07:41:32;;;;;;;10.93;6.83;;;16.20;99.90;;;;;;5009806;28;20641;-79
2023/05/25 07:43:59;;;;;;;10.03;6.30;;;16.50;99.90;;;;;;5029080;28;20208;-80
2023/05/25 07:46:26;;;;;;;13.67;7.27;;;16.80;99.90;;;;;;5018227;28;20330;-80
2023/05/25 07:48:55;;;;;;;9.70;5.70;;;16.80;99.90;;;;;;5013786;28;20219;-81
2023/05/25 07:51:25;;;;;;;10.07;6.80;;;17.00;99.90;;;;;;5017647;28;20200;-80
2023/05/25 07:53:52;;;;;;;9.77;6.10;;;17.00;99.90;;;;;;5009840;28;20292;-81
2023/05/25 07:56:19;;;;;;;11.10;7.57;;;17.00;99.90;;;;;;5026531;28;20221;-86
2023/05/25 07:58:46;;;;;;;12.73;7.63;;;17.10;99.90;;;;;;5013423;28;20296;-85
2023/05/25 08:01:14;;;;;;;10.27;7.30;;;16.80;99.90;;;;;;5017693;28;20229;-85
2023/05/25 08:03:41;;;;;;;11.30;6.27;;;16.50;99.90;;;;;;5021451;28;20208;-84
2023/05/25 08:06:10;;;;;;;8.97;6.40;;;16.60;99.90;;;;;;5021900;28;20221;-84
2023/05/25 08:08:37;;;;;;;10.87;6.83;;;16.70;99.90;;;;;;5020414;28;20228;-85
2023/05/25 08:11:04;;;;;;;12.60;7.77;;;16.70;99.90;;;;;;5019705;28;20241;-84
2023/05/25 08:13:31;;;;;;;14.03;7.20;;;16.70;99.90;;;;;;5030085;28;20215;-83
2023/05/25 08:15:57;;;;;;;10.00;6.20;;;16.50;99.90;;;;;;5017915;28;20650;-83
2023/05/25 08:18:24;;;;;;;12.03;6.57;;;16.70;99.90;;;;;;5014017;28;20224;-84
2023/05/25 08:20:51;;;;;;;12.27;6.47;;;16.70;99.90;;;;;;5017249;28;20214;-83
2023/05/25 08:23:20;;;;;;;11.50;7.50;;;17.00;99.90;;;;;;5032498;28;20200;-83
2023/05/25 08:25:47;;;;;;;12.00;6.70;;;16.80;99.90;;;;;;5023205;28;20259;-84
2023/05/25 08:28:14;;;;;;;12.73;7.70;;;17.00;99.90;;;;;;5016065;28;20209;-83
2023/05/25 08:30:42;;;;;;;13.43;7.37;;;17.10;99.90;;;;;;5030039;28;20194;-84
2023/05/25 08:33:10;;;;;;;10.50;8.20;;;16.90;99.90;;;;;;5011719;28;20200;-84
2023/05/25 08:35:39;;;;;;;12.20;9.83;;;16.90;99.90;;;;;;5018007;28;20214;-84
2023/05/25 08:38:06;;;;;;;19.77;11.30;;;16.80;99.90;;;;;;5012590;28;20211;-85
2023/05/25 08:40:34;;;;;;;11.50;9.53;;;16.70;99.90;;;;;;5011623;28;20217;-80
2023/05/25 08:43:01;;;;;;;13.63;12.10;;;16.70;99.90;;;;;;5018522;28;20209;-84
2023/05/25 08:45:28;;;;;;;11.13;7.27;;;16.80;99.90;;;;;;5013302;28;20213;-82
2023/05/25 08:47:59;;;;;;;18.67;12.07;;;17.00;99.90;;;;;;5019511;28;20684;-84
2023/05/25 08:50:27;;;;;;;9.70;6.37;;;17.30;99.90;;;;;;5017828;28;20694;-85
2023/05/25 08:52:57;;;;;;;14.60;7.17;;;17.50;99.90;;;;;;5022753;28;20207;-81
2023/05/25 08:55:26;;;;;;;11.27;7.40;;;17.80;99.90;;;;;;5023734;28;20235;-80
2023/05/25 08:57:58;;;;;;;12.93;9.40;;;17.70;99.90;;;;;;5016764;28;20230;-81
2023/05/25 09:00:32;;;;;;;13.10;10.37;;;17.90;99.90;;;;;;5013100;28;20266;-80
2023/05/25 09:03:06;;;;;;;11.00;8.13;;;18.30;99.90;;;;;;5017599;28;20268;-82
2023/05/25 09:05:34;;;;;;;12.80;10.43;;;18.60;99.90;;;;;;5012129;28;20219;-80
2023/05/25 09:08:02;;;;;;;14.93;8.50;;;19.30;99.90;;;;;;5006951;28;20201;-81
2023/05/25 09:10:32;;;;;;;11.00;7.93;;;19.90;99.90;;;;;;5014103;28;20232;-82
2023/05/25 09:13:01;;;;;;;10.93;6.63;;;20.10;99.90;;;;;;5009061;28;20201;-81
2023/05/25 09:15:28;;;;;;;11.63;8.63;;;20.20;99.90;;;;;;5007056;28;20227;-81
2023/05/25 09:17:54;;;;;;;10.70;9.50;;;20.00;99.90;;;;;;5009770;28;20251;-82
2023/05/25 09:20:22;;;;;;;11.23;7.20;;;19.80;99.90;;;;;;5008219;28;20730;-81
2023/05/25 09:22:49;;;;;;;14.23;7.20;;;19.80;99.90;;;;;;5018821;28;20208;-80
2023/05/25 09:25:19;;;;;;;9.83;7.07;;;19.20;99.90;;;;;;5006130;28;20221;-80
2023/05/25 09:27:46;;;;;;;11.70;7.67;;;18.80;99.90;;;;;;5023519;28;20569;-81
2023/05/25 09:30:14;;;;;;;8.93;6.80;;;18.60;99.90;;;;;;5006688;28;20201;-80
2023/05/25 09:32:41;;;;;;;13.00;9.03;;;18.50;99.90;;;;;;5021210;28;20192;-81
2023/05/25 09:35:08;;;;;;;12.37;9.30;;;18.10;99.90;;;;;;5003104;28;20221;-80
2023/05/25 09:37:36;;;;;;;9.50;7.40;;;18.10;99.90;;;;;;5020417;28;20690;-81
2023/05/25 09:40:04;;;;;;;14.00;7.77;;;18.20;99.90;;;;;;5019872;28;20207;-83
2023/05/25 09:42:31;;;;;;;11.67;9.37;;;18.50;99.90;;;;;;5014296;28;20695;-82
2023/05/25 09:44:58;;;;;;;14.80;7.90;;;18.80;99.90;;;;;;5027186;28;20219;-82
2023/05/25 09:47:27;;;;;;;15.80;7.30;;;19.00;99.90;;;;;;5025646;28;20276;-82
2023/05/25 09:49:54;;;;;;;12.10;7.73;;;19.00;99.90;;;;;;5024812;28;20682;-82
2023/05/25 09:52:21;;;;;;;9.70;7.47;;;18.70;99.90;;;;;;5021690;28;20204;-81
2023/05/25 09:54:48;;;;;;;9.73;6.57;;;19.00;99.90;;;;;;5018129;28;20223;-82
2023/05/25 09:57:15;;;;;;;10.53;5.80;;;19.30;99.90;;;;;;5019128;28;20192;-82
2023/05/25 09:59:44;;;;;;;12.67;7.53;;;19.70;99.90;;;;;;5021849;28;20200;-82
2023/05/25 10:02:10;;;;;;;11.63;7.17;;;19.70;99.90;;;;;;5018256;28;20266;-81
2023/05/25 10:04:40;;;;;;;11.43;6.43;;;19.60;99.90;;;;;;5021212;28;20208;-81
2023/05/25 10:07:07;;;;;;;14.20;7.40;;;19.70;99.90;;;;;;5021840;28;20203;-81
2023/05/25 10:09:39;;;;;;;12.07;10.63;;;19.70;99.90;;;;;;5017371;28;20223;-80
2023/05/25 10:12:07;;;;;;;11.90;6.57;;;19.90;99.90;;;;;;5028840;28;20210;-82
2023/05/25 10:14:37;;;;;;;10.57;6.93;;;20.10;99.90;;;;;;5021647;28;20220;-82
2023/05/25 10:17:05;;;;;;;9.23;6.50;;;20.40;99.90;;;;;;5004374;28;20205;-82
2023/05/25 10:19:40;;;;;;;8.80;6.50;;;20.60;99.90;;;;;;5020914;28;20261;-82
2023/05/25 10:22:13;;;;;;;9.80;6.70;;;21.40;99.90;;;;;;5019262;28;20794;-83
2023/05/25 10:24:48;;;;;;;10.97;6.37;;;21.50;99.90;;;;;;5008483;28;20212;-83
2023/05/25 10:27:19;;;;;;;10.53;6.70;;;21.60;99.90;;;;;;5021427;28;20263;-81
2023/05/25 10:29:48;;;;;;;19.37;8.70;;;21.50;99.90;;;;;;5019634;28;20204;-82
2023/05/25 10:32:16;;;;;;;10.90;7.43;;;20.90;99.90;;;;;;5018636;28;20284;-77
2023/05/25 10:34:43;;;;;;;13.13;6.87;;;20.70;99.90;;;;;;5013069;28;20228;-77
2023/05/25 10:37:12;;;;;;;10.10;6.40;;;20.60;99.90;;;;;;5012929;28;20207;-78
2023/05/25 10:39:40;;;;;;;11.20;6.47;;;20.70;99.90;;;;;;5019881;28;20248;-77
2023/05/25 10:42:08;;;;;;;9.53;7.13;;;20.40;99.90;;;;;;5019604;28;20259;-78
2023/05/25 10:44:35;;;;;;;11.20;6.00;;;20.40;99.90;;;;;;5009087;28;20216;-77
2023/05/25 10:47:02;;;;;;;11.77;6.47;;;20.60;99.90;;;;;;5010211;28;20227;-78
2023/05/25 10:49:33;;;;;;;8.73;6.20;;;20.40;99.90;;;;;;5021989;28;20622;-78
2023/05/25 10:52:01;;;;;;;12.10;7.33;;;20.40;99.90;;;;;;5013564;28;20228;-78
2023/05/25 10:54:35;;;;;;;8.37;6.27;;;20.50;99.90;;;;;;5017471;28;20655;-77
2023/05/25 10:57:08;;;;;;;12.07;6.80;;;20.80;99.90;;;;;;5022439;28;20192;-78
2023/05/25 10:59:35;;;;;;;10.83;7.13;;;21.10;99.90;;;;;;5024528;28;20205;-79
2023/05/25 11:02:06;;;;;;;10.43;8.97;;;21.20;99.90;;;;;;5024228;28;20226;-78
2023/05/25 11:04:35;;;;;;;10.53;6.93;;;21.30;99.90;;;;;;5012254;28;20215;-77
2023/05/25 11:07:12;;;;;;;9.30;7.20;;;21.30;99.90;;;;;;5018079;28;20200;-77
2023/05/25 11:09:43;;;;;;;10.37;6.30;;;21.10;99.90;;;;;;5008600;28;20202;-77
2023/05/25 11:12:21;;;;;;;10.40;9.33;;;21.10;99.90;;;;;;5013262;28;20655;-78
2023/05/25 11:15:13;;;;;;;9.80;7.83;;;21.00;99.90;;;;;;5015061;28;20298;-77
2023/05/25 11:17:59;;;;;;;12.43;8.10;;;21.00;99.90;;;;;;5009419;28;20191;-77
2023/05/25 11:20:28;;;;;;;10.17;6.27;;;21.30;99.90;;;;;;5022544;28;20203;-82
2023/05/25 11:23:24;;;;;;;9.87;6.27;;;21.30;99.90;;;;;;5013993;28;20209;-82
2023/05/25 11:25:52;;;;;;;10.37;6.60;;;21.40;99.90;;;;;;5014703;28;20675;-82
2023/05/25 11:28:23;;;;;;;9.67;5.93;;;21.40;99.90;;;;;;5015578;28;20736;-83
2023/05/25 11:30:53;;;;;;;9.10;6.33;;;21.10;99.90;;;;;;5006297;28;20202;-81
2023/05/25 11:33:23;;;;;;;8.90;5.40;;;20.80;99.90;;;;;;5014961;28;20235;-82
2023/05/25 11:39:16;;;;;;;11.63;7.00;;;21.30;99.90;;;;;;4939689;28;20207;-79
2023/05/25 11:41:48;;;;;;;11.73;6.50;;;21.10;99.90;;;;;;5017214;28;20276;-78
2023/05/25 11:44:16;;;;;;;11.00;6.80;;;21.20;99.90;;;;;;5009236;28;20213;-77
2023/05/25 11:46:47;;;;;;;14.07;7.40;;;21.10;99.90;;;;;;5025719;28;20733;-79
2023/05/25 11:49:14;;;;;;;10.23;6.07;;;21.00;99.90;;;;;;5020610;28;20332;-78
2023/05/25 11:51:41;;;;;;;8.97;5.83;;;20.90;99.90;;;;;;5022195;28;20625;-78
2023/05/25 11:54:07;;;;;;;7.20;5.57;;;21.20;99.90;;;;;;5019517;28;20204;-78
2023/05/25 11:56:35;;;;;;;13.03;9.77;;;21.40;99.90;;;;;;5026633;28;20280;-79
2023/05/25 11:59:07;;;;;;;8.50;6.10;;;21.50;99.90;;;;;;5017852;28;20231;-79
2023/05/25 12:01:34;;;;;;;10.40;9.40;;;21.40;99.90;;;;;;5019452;28;20200;-78
2023/05/25 12:04:08;;;;;;;9.00;6.17;;;21.50;99.90;;;;;;5011034;28;20256;-78
2023/05/25 12:06:35;;;;;;;11.80;6.60;;;21.50;99.90;;;;;;5012912;28;20201;-78
2023/05/25 12:09:05;;;;;;;11.07;6.67;;;21.60;99.90;;;;;;5016645;28;20283;-78
2023/05/25 12:11:33;;;;;;;11.73;9.53;;;21.70;99.90;;;;;;5027007;28;20219;-79
2023/05/25 12:14:03;;;;;;;12.90;6.53;;;21.70;99.90;;;;;;5022308;28;20254;-80
2023/05/25 12:16:33;;;;;;;11.50;6.97;;;21.80;99.90;;;;;;5019699;28;20336;-78
2023/05/25 12:19:00;;;;;;;12.20;6.47;;;21.90;99.90;;;;;;5032966;28;20204;-79
2023/05/25 12:21:37;;;;;;;10.00;6.90;;;21.90;99.90;;;;;;5022603;28;20201;-79
2023/05/25 12:24:04;;;;;;;13.07;6.70;;;21.90;99.90;;;;;;5026325;28;20200;-78
2023/05/25 12:26:32;;;;;;;10.50;6.93;;;22.00;99.90;;;;;;5018409;28;20273;-78
2023/05/25 12:29:00;;;;;;;11.17;6.13;;;22.10;99.90;;;;;;5020740;28;20687;-79
2023/05/25 12:31:28;;;;;;;7.97;6.20;;;22.20;99.90;;;;;;5026883;28;20295;-78
2023/05/25 12:34:10;;;;;;;15.97;9.93;;;22.30;99.90;;;;;;5013958;28;20199;-78
2023/05/25 12:36:42;;;;;;;10.87;9.40;;;22.00;99.90;;;;;;5017994;28;20219;-77
2023/05/25 12:39:11;;;;;;;10.10;9.10;;;22.10;99.90;;;;;;5025292;28;20684;-78
2023/05/25 12:41:49;;;;;;;10.93;8.97;;;22.00;99.90;;;;;;5024899;28;20196;-78
2023/05/25 12:44:21;;;;;;;10.17;9.17;;;21.90;99.90;;;;;;5017161;28;20204;-78
2023/05/25 12:46:48;;;;;;;9.07;7.10;;;22.10;99.90;;;;;;5011420;28;20242;-78
2023/05/25 12:49:30;;;;;;;10.80;6.63;;;22.30;99.90;;;;;;5024270;28;20231;-78
2023/05/25 12:51:58;;;;;;;8.30;5.20;;;22.00;99.90;;;;;;5016015;28;20191;-78
2023/05/25 12:54:43;;;;;;;9.90;6.53;;;22.20;99.90;;;;;;5014089;28;20248;-79
2023/05/25 12:57:13;;;;;;;9.47;6.50;;;22.10;99.90;;;;;;5007884;28;20200;-78